Latest Weather Observations for Tennant Creek

IDD60801

Issued at 8:01 am CST Monday 27 April 2015 (issued every 30 minutes, with the page automatically refreshed every 10 minutes)

About weather observations | Map of weather stations | Latest weather observations for NT | Other Formats
Station Details ID: 015135 Name: TENNANT CREEK AIRPORT Lat: -19.64 Lon: 134.18 Height: 375.7 m
Data from the previous 72 hours. | See also: Recent months at Tennant Creek
Date/Time
CST
Temp
°C
App
Temp
°C
Dew
Point
Rel
Hum
%
Delta-T
°C
Wind Press
QNH
hPa
Press
MSL
hPa
Rain
since 9 am
mm
Dir
 
Spd
km/h
Gust
km/h
Spd
kts
Gust
kts
27/08:00am 16.8 9.8 1.8 36 6.8 ESE 28 41 15 22 1020.7 - 0.0
27/07:30am 16.1 9.1 2.0 38 6.4 ESE 28 39 15 21 1020.3 - 0.0
27/07:00am 15.6 9.8 2.1 40 6.1 ESE 22 33 12 18 1020.2 - 0.0
27/06:30am 15.9 10.0 2.0 39 6.3 ESE 22 32 12 17 1020.1 - 0.0
27/06:00am 15.8 10.4 2.4 40 6.1 ESE 20 28 11 15 1019.8 1017.6 0.0
27/05:30am 15.7 9.6 2.6 41 6.0 ESE 24 33 13 18 1019.5 - 0.0
27/05:00am 16.0 10.2 2.4 40 6.2 ESE 22 32 12 17 1019.6 - 0.0
27/04:30am 16.2 10.8 2.5 39 6.3 ESE 20 33 11 18 1019.5 - 0.0
27/04:00am 15.9 10.2 2.6 41 6.1 ESE 22 28 12 15 1019.4 - 0.0
27/03:30am 15.5 10.3 2.3 41 6.0 ESE 19 24 10 13 1019.5 - 0.0
27/03:00am 15.2 10.3 2.1 41 5.9 ESE 17 24 9 13 1019.7 1017.5 0.0
27/02:30am 15.8 10.2 1.2 37 6.5 ESE 20 28 11 15 1019.7 - 0.0
27/02:00am 16.2 10.7 0.9 35 6.8 ESE 19 26 10 14 1019.5 - 0.0
27/01:30am 16.8 11.7 0.5 33 7.2 ESE 17 26 9 14 1019.8 - 0.0
27/01:00am 16.9 11.7 0.4 32 7.3 ESE 17 26 9 14 1020.0 - 0.0
27/12:30am 17.1 11.8 -0.4 30 7.6 ESE 17 24 9 13 1020.4 - 0.0
27/12:00am 17.6 12.3 -0.5 29 7.9 ESE 17 24 9 13 1020.4 1018.2 0.0
 
Date/Time
CST
Temp
°C
App
Temp
°C
Dew
Point
Rel
Hum
%
Delta-T
°C
Wind Press
QNH
hPa
Press
MSL
hPa
Rain
since 9 am
mm
Dir
 
Spd
km/h
Gust
km/h
Spd
kts
Gust
kts
26/11:30pm 17.6 12.3 -0.9 28 8.0 ESE 17 24 9 13 1020.5 - 0.0
26/11:00pm 17.6 12.6 -0.9 28 8.0 ESE 15 20 8 11 1020.5 - 0.0
26/10:30pm 17.8 12.7 -1.7 26 8.3 ESE 15 24 8 13 1020.7 - 0.0
26/10:00pm 18.4 13.2 -2.5 24 8.8 ESE 15 24 8 13 1020.7 - 0.0
26/09:30pm 18.8 14.3 -2.9 23 9.1 ESE 11 15 6 8 1020.5 - 0.0
26/09:00pm 19.8 14.9 -3.3 21 9.7 ESE 13 17 7 9 1020.3 1018.1 0.0
26/08:30pm 20.1 16.0 -3.0 21 9.8 E 9 13 5 7 1020.0 - 0.0
26/08:00pm 20.6 15.7 -3.2 20 10.1 ESE 13 20 7 11 1019.7 - 0.0
26/07:30pm 20.7 16.2 -3.4 19 10.2 ESE 11 15 6 8 1019.3 - 0.0
26/07:00pm 21.3 17.2 -3.4 19 10.5 ESE 9 13 5 7 1018.9 - 0.0
26/06:30pm 22.8 18.2 -4.4 16 11.5 ESE 11 17 6 9 1018.5 - 0.0
26/06:00pm 24.0 18.1 -5.2 14 12.3 ESE 17 28 9 15 1018.0 1015.7 0.0
26/05:30pm 24.8 18.9 -5.6 13 12.8 ESE 17 28 9 15 1017.6 - 0.0
26/05:00pm 25.1 18.2 -5.8 12 13.0 SE 22 32 12 17 1017.2 - 0.0
26/04:30pm 25.5 19.1 -5.1 13 13.1 ESE 20 30 11 16 1017.0 - 0.0
26/04:00pm 25.2 19.0 -4.4 14 12.8 SE 19 28 10 15 1017.1 - 0.0
26/03:30pm 25.3 18.5 -5.2 13 13.0 ESE 22 30 12 16 1017.0 - 0.0
26/03:00pm 25.4 18.7 -4.4 13 12.9 SE 22 32 12 17 1017.2 1015.0 0.0
26/02:30pm 24.7 18.5 -3.3 15 12.3 SE 20 30 11 16 1017.5 - 0.0
26/02:00pm 25.4 19.1 -4.4 13 12.9 ESE 20 30 11 16 1018.0 - 0.0
26/01:30pm 24.0 17.9 -2.7 17 11.8 ESE 20 30 11 16 1018.4 - 0.0
26/01:00pm 24.0 17.1 -2.7 17 11.8 ESE 24 33 13 18 1018.8 - 0.0
26/12:30pm 22.7 16.0 -1.4 20 10.8 SE 24 33 13 18 1019.1 - 0.0
26/12:00pm 23.3 15.8 -1.4 19 11.1 ESE 28 44 15 24 1019.7 1017.5 0.0
26/11:30am 21.5 14.1 -0.8 22 10.0 ESE 28 41 15 22 1020.3 - 0.0
26/11:00am 20.8 12.6 -0.7 23 9.6 E 32 39 17 21 1020.7 - 0.0
26/10:30am 19.7 11.9 -0.6 25 9.0 SE 30 44 16 24 1021.2 - 0.0
26/10:00am 18.5 9.4 -0.3 28 8.3 ESE 37 50 20 27 1021.4 - 0.0
26/09:40am 18.7 11.1 0.4 29 8.2 ESE 30 48 16 26 1021.4 - 0.0
26/09:30am 17.9 9.3 0.0 30 7.9 SE 35 48 19 26 1021.4 - 0.0
26/09:07am 17.5 9.3 0.3 31 7.6 ESE 33 52 18 28 1021.3 - 0.0
26/09:00am 17.7 9.5 0.4 31 7.7 ESE 33 50 18 27 1021.4 1019.2 0.0
26/08:44am 16.9 7.6 0.7 33 7.2 ESE 39 57 21 31 1021.3 - 0.0
26/08:30am 16.3 8.7 0.3 33 7.0 SE 30 43 16 23 1021.2 - 0.0
26/08:00am 14.8 8.0 0.5 37 6.2 ESE 26 43 14 23 1021.1 - 0.0
26/07:30am 13.7 8.2 0.7 41 5.6 SE 19 26 10 14 1021.0 - 0.0
26/07:00am 13.2 7.7 0.3 41 5.5 SE 19 28 10 15 1020.7 - 0.0
26/06:30am 13.2 7.5 0.6 42 5.4 SE 20 30 11 16 1020.3 - 0.0
26/06:00am 13.8 8.1 0.6 40 5.7 SE 20 30 11 16 1020.1 1017.9 0.0
26/05:30am 14.0 7.9 0.6 40 5.8 ESE 22 30 12 16 1020.2 - 0.0
26/05:00am 14.2 8.7 0.6 39 5.9 ESE 19 26 10 14 1020.1 - 0.0
26/04:30am 14.6 8.5 0.5 38 6.1 ESE 22 30 12 16 1020.0 - 0.0
26/04:00am 14.8 9.1 0.5 37 6.2 ESE 20 28 11 15 1019.9 - 0.0
26/03:30am 14.5 9.1 1.0 40 5.9 ESE 19 28 10 15 1019.9 - 0.0
26/03:00am 14.4 9.9 2.1 43 5.5 ESE 15 22 8 12 1019.9 1017.7 0.0
26/02:30am 15.4 9.8 1.5 39 6.2 ESE 20 28 11 15 1019.9 - 0.0
26/02:00am 15.9 10.6 1.7 38 6.4 ESE 19 28 10 15 1020.2 - 0.0
26/01:30am 16.5 11.2 2.0 37 6.6 E 19 26 10 14 1020.2 - 0.0
26/01:00am 16.9 12.0 2.0 36 6.8 E 17 26 9 14 1020.1 - 0.0
26/12:30am 17.4 12.1 1.9 35 7.1 E 19 30 10 16 1020.1 - 0.0
26/12:00am 17.4 12.0 1.5 34 7.2 E 19 28 10 15 1020.2 1018.0 0.0
 
Date/Time
CST
Temp
°C
App
Temp
°C
Dew
Point
Rel
Hum
%
Delta-T
°C
Wind Press
QNH
hPa
Press
MSL
hPa
Rain
since 9 am
mm
Dir
 
Spd
km/h
Gust
km/h
Spd
kts
Gust
kts
25/11:30pm 17.8 12.2 1.2 32 7.5 ESE 20 28 11 15 1020.2 - 0.0
25/11:00pm 18.0 13.0 1.2 32 7.6 ESE 17 22 9 12 1020.1 - 0.0
25/10:30pm 18.9 13.4 0.8 29 8.2 ESE 19 26 10 14 1019.8 - 0.0
25/10:00pm 19.8 14.6 0.3 27 8.8 ESE 17 30 9 16 1019.7 - 0.0
25/09:30pm 20.5 14.9 -0.2 25 9.3 ESE 19 28 10 15 1019.5 - 0.0
25/09:00pm 20.4 15.2 0.0 25 9.2 ESE 17 24 9 13 1019.3 1017.1 0.0
25/08:30pm 20.6 15.8 0.1 25 9.3 ESE 15 20 8 11 1018.9 - 0.0
25/08:00pm 21.3 16.5 0.0 24 9.7 ESE 15 22 8 12 1018.3 - 0.0
25/07:30pm 22.2 17.7 -0.5 22 10.3 ESE 13 17 7 9 1017.6 - 0.0
25/07:00pm 23.1 18.6 -0.5 21 10.8 ESE 13 20 7 11 1017.0 - 0.0
25/06:30pm 24.0 19.1 -0.6 19 11.3 ESE 15 24 8 13 1016.7 - 0.0
25/06:00pm 25.2 19.2 -1.5 17 12.2 ESE 20 30 11 16 1016.4 1014.2 0.0
25/05:30pm 25.9 20.5 -1.6 16 12.6 ESE 17 32 9 17 1016.1 - 0.0
25/05:00pm 26.4 19.6 -2.1 15 13.0 SE 24 35 13 19 1015.7 - 0.0
25/04:30pm 26.9 19.6 -2.7 14 13.4 ESE 26 35 14 19 1015.4 - 0.0
25/04:00pm 27.4 21.1 -0.9 15 13.3 SSE 22 28 12 15 1015.2 - 0.0
25/03:30pm 26.8 19.7 -1.1 16 13.0 SE 26 35 14 19 1015.4 - 0.0
25/03:00pm 27.7 21.1 -0.2 16 13.3 SE 24 43 13 23 1015.3 1013.0 0.0
25/02:30pm 26.8 21.1 0.5 18 12.6 ESE 20 35 11 19 1015.6 - 0.0
25/02:00pm 26.9 19.6 0.3 17 12.7 ESE 28 35 15 19 1015.9 - 0.0
25/01:30pm 27.2 20.5 -1.0 16 13.2 ESE 24 39 13 21 1016.3 - 0.0
25/01:00pm 26.9 19.8 -0.9 16 13.0 ESE 26 39 14 21 1016.4 - 0.0
25/12:30pm 27.2 19.7 -1.5 15 13.3 ESE 28 48 15 26 1016.7 - 0.0
25/12:26pm 26.1 18.3 -1.1 16 12.6 ESE 30 48 16 26 1016.7 - 0.0
25/12:00pm 25.9 18.4 -1.2 17 12.5 E 28 41 15 22 1017.1 1014.9 0.0
25/11:30am 26.3 18.7 -2.4 15 13.0 ESE 28 44 15 24 1017.5 - 0.0
25/11:00am 25.2 16.7 -2.9 15 12.5 ESE 32 44 17 24 1018.0 - 0.0
25/10:30am 24.4 15.9 -3.1 16 12.1 ESE 32 44 17 24 1018.1 - 0.0
25/10:00am 24.5 16.8 -2.9 16 12.1 ESE 28 41 15 22 1018.0 - 0.0
25/09:54am 23.9 15.8 -3.0 16 11.8 ESE 30 48 16 26 1018.1 - 0.0
25/09:30am 23.7 14.6 -4.0 15 11.9 ESE 35 50 19 27 1017.8 - 0.0
25/09:05am 23.0 15.1 -4.3 16 11.6 ESE 28 46 15 25 1017.5 - 0.0
25/09:00am 22.9 15.1 -3.6 17 11.4 ESE 28 41 15 22 1017.5 1015.3 0.0
25/08:30am 21.2 14.2 -3.1 19 10.4 ESE 24 33 13 18 1017.5 - 0.0
25/08:00am 19.8 13.4 -4.6 19 10.0 ESE 20 33 11 18 1017.3 - 0.0
25/07:30am 18.3 13.1 -3.0 23 8.9 E 15 20 8 11 1017.0 - 0.0
25/07:00am 18.2 12.9 -3.7 22 9.0 E 15 22 8 12 1016.6 - 0.0
25/06:30am 18.3 12.2 -3.5 22 9.0 E 19 24 10 13 1016.3 - 0.0
25/06:00am 17.3 12.9 -2.2 26 8.2 E 11 15 6 8 1015.9 1013.6 0.0
25/05:30am 17.7 12.9 -2.2 25 8.4 E 13 20 7 11 1015.8 - 0.0
25/05:00am 17.9 13.2 -1.8 26 8.4 E 13 20 7 11 1015.6 - 0.0
25/04:30am 18.4 13.3 -2.0 25 8.7 E 15 22 8 12 1015.6 - 0.0
25/04:00am 18.6 13.5 -2.0 24 8.8 E 15 22 8 12 1015.6 - 0.0
25/03:30am 18.5 13.5 -1.4 26 8.6 E 15 20 8 11 1015.6 - 0.0
25/03:00am 19.5 14.8 -1.7 24 9.2 E 13 20 7 11 1015.6 1013.3 0.0
25/02:30am 20.3 14.4 -2.1 22 9.7 E 19 26 10 14 1015.5 - 0.0
25/02:00am 20.2 14.2 -1.5 23 9.5 E 20 28 11 15 1015.7 - 0.0
25/01:30am 20.3 14.9 -1.3 23 9.5 ESE 17 26 9 14 1015.6 - 0.0
25/01:00am 20.7 15.8 -0.8 23 9.6 E 15 22 8 12 1015.8 - 0.0
25/12:30am 20.9 16.4 0.0 24 9.5 E 13 20 7 11 1015.8 - 0.0
25/12:00am 20.8 16.4 0.5 26 9.3 E 13 22 7 12 1015.9 1013.6 0.0
 
Date/Time
CST
Temp
°C
App
Temp
°C
Dew
Point
Rel
Hum
%
Delta-T
°C
Wind Press
QNH
hPa
Press
MSL
hPa
Rain
since 9 am
mm
Dir
 
Spd
km/h
Gust
km/h
Spd
kts
Gust
kts
24/11:30pm 20.8 17.7 1.5 27 9.0 E 7 11 4 6 1016.0 - 0.0
24/11:00pm 21.0 18.0 2.3 29 8.9 E 7 11 4 6 1015.8 - 0.0
24/10:30pm 22.1 18.3 1.6 26 9.7 SE 11 15 6 8 1015.8 - 0.0
24/10:00pm 21.5 18.8 2.8 29 9.0 ESE 6 9 3 5 1015.7 - 0.0
24/09:30pm 22.4 19.6 3.1 28 9.4 SE 7 9 4 5 1015.7 - 0.0
24/09:00pm 23.7 20.9 2.9 25 10.2 SE 7 11 4 6 1015.6 1013.3 0.0
24/08:30pm 25.5 20.8 0.8 20 11.8 SSE 15 22 8 12 1015.2 - 0.0
24/08:00pm 24.9 21.5 1.8 22 11.2 SE 9 15 5 8 1014.6 - 0.0
24/07:30pm 25.3 22.0 2.6 23 11.2 S 9 13 5 7 1014.1 - 0.0
24/07:00pm 26.0 22.5 1.5 20 11.9 S 9 13 5 7 1013.7 - 0.0
24/06:30pm 27.2 24.0 0.7 18 12.8 SSE 7 11 4 6 1013.4 - 0.0
24/06:00pm 28.2 24.6 0.6 16 13.4 SSE 9 20 5 11 1012.9 1010.6 0.0
24/05:30pm 28.9 24.8 -0.2 15 14.0 ESE 11 15 6 8 1012.7 - 0.0
24/05:00pm 29.3 25.0 -1.8 13 14.6 SE 11 20 6 11 1012.5 - 0.0
24/04:30pm 29.4 24.8 -1.1 14 14.5 SE 13 24 7 13 1012.5 - 0.0
24/04:00pm 28.8 24.0 -2.2 13 14.4 SE 13 24 7 13 1012.4 - 0.0
24/03:30pm 29.4 24.1 -4.0 11 15.1 SSE 15 24 8 13 1012.6 - 0.0
24/03:00pm 30.2 24.3 -5.4 9 15.8 SE 17 30 9 16 1012.6 1010.3 0.0
24/02:30pm 29.1 24.5 -4.4 11 15.0 SSE 11 24 6 13 1012.8 - 0.0
24/02:00pm 28.8 23.1 -7.2 9 15.3 SSE 15 26 8 14 1013.0 - 0.0
24/01:30pm 28.5 23.2 -7.6 9 15.2 ESE 13 26 7 14 1013.4 - 0.0
24/01:00pm 28.5 23.7 -2.6 13 14.3 SSE 13 24 7 13 1014.0 - 0.0
24/12:30pm 28.5 23.2 -3.6 12 14.5 S 15 24 8 13 1014.5 - 0.0
24/12:00pm 27.1 22.4 -1.7 15 13.3 SE 13 26 7 14 1015.2 1012.9 0.0
24/11:30am 26.9 22.5 -2.7 14 13.4 SE 11 17 6 9 1015.7 - 0.0
24/11:00am 26.0 21.0 -1.3 16 12.6 ESE 15 26 8 14 1016.0 - 0.0
24/10:30am 24.8 19.7 -1.6 17 12.0 E 15 28 8 15 1016.5 - 0.0
24/10:00am 24.3 18.8 -2.4 17 11.9 E 17 22 9 12 1016.8 - 0.0
24/09:30am 22.4 16.8 -2.5 19 10.9 ESE 17 24 9 13 1016.9 - 0.0
24/09:00am 22.3 16.3 -2.7 18 10.9 ESE 19 28 10 15 1016.7 1014.5 0.0
24/08:30am 20.7 14.6 -2.1 21 9.9 ESE 20 28 11 15 1016.5 - 0.0

Other Formats:

Comma delimited format used in spreadsheet applications
http://www.bom.gov.au/fwo/IDD60801/IDD60801.94238.axf

JavaScript Object Notation format (JSON) in row-major order
http://www.bom.gov.au/fwo/IDD60801/IDD60801.94238.json